WetterOnline ( https://www.wetteronline.de )

Wetter aktuell List

Aktuelles Wetter: List/Sylt (29m)

6-stündlich | Neueste Meldungen
Ortszeit Temperatur Wetter
Fr, 24.05. 8:00 13.5° C leicht bewölkt
Fr, 24.05. 2:00 10.0° C wolkenlos
Do, 23.05. 20:00 12.9° C bedeckt
Do, 23.05. 14:00 15.6° C leicht bewölkt
Do, 23.05. 8:00 12.2° C wolkenlos
Do, 23.05. 2:00 9.8° C fast wolkenlos
Mi, 22.05. 20:00 11.6° C wolkenlos
Mi, 22.05. 14:00 12.3° C bewölkt
Ortszeit Temperatur Wetter
Fr, 24.05. 12:00 13.6° C bewölkt
Fr, 24.05. 11:50 13.6° C bewölkt
Fr, 24.05. 11:40 13.6° C wolkig
Fr, 24.05. 11:30 14.0° C fast wolkenlos
Fr, 24.05. 11:20 14.0° C fast wolkenlos
Fr, 24.05. 11:10 14.5° C wolkenlos
Fr, 24.05. 11:00 13.8° C wolkenlos
Fr, 24.05. 10:30 14.4° C wolkenlos
Fr, 24.05. 10:00 13.6° C wolkenlos
Fr, 24.05. 9:30 14.0° C fast wolkenlos
Fr, 24.05. 9:00 13.6° C bewölkt
Ortszeit Relative Feuchte Sichtweite
Fr, 24.05. 8:00 67% 35 km
Fr, 24.05. 2:00 84% 35 km
Do, 23.05. 20:00 72% 30 km
Do, 23.05. 14:00 59% 20 km
Do, 23.05. 8:00 76% 50 km
Do, 23.05. 2:00 84% 40 km
Mi, 22.05. 20:00 73% 45 km
Mi, 22.05. 14:00 68% 30 km
Ortszeit Relative Feuchte Sichtweite
Fr, 24.05. 12:00 75% 30 km
Fr, 24.05. 11:50 75% -
Fr, 24.05. 11:40 75% -
Fr, 24.05. 11:30 73% 28 km
Fr, 24.05. 11:20 73% -
Fr, 24.05. 11:10 73% -
Fr, 24.05. 11:00 74% 23 km
Fr, 24.05. 10:30 72% 20 km
Fr, 24.05. 10:00 74% 18 km
Fr, 24.05. 9:30 73% 18 km
Fr, 24.05. 9:00 74% 23 km
Ortszeit Niederschlagsmenge Niederschlagsart
Fr, 24.05. 8:00 0.0 l/m2 in 12 Std. -
Fr, 24.05. 2:00 0.0 l/m2 in 6 Std. -
Do, 23.05. 20:00 0.0 l/m2 in 12 Std. -
Do, 23.05. 14:00 0.0 l/m2 in 6 Std. -
Do, 23.05. 8:00 0.0 l/m2 in 12 Std. -
Do, 23.05. 2:00 0.0 l/m2 in 6 Std. -
Mi, 22.05. 20:00 0.1 l/m2 in 12 Std. -
Mi, 22.05. 14:00 0.1 l/m2 in 6 Std. Regen
Ortszeit Niederschlagsmenge Niederschlagsart
Fr, 24.05. 12:00 0.0 l/m2 in 1 Std. -
Fr, 24.05. 11:50 keine Meldung -
Fr, 24.05. 11:40 keine Meldung -
Fr, 24.05. 11:30 0.0 l/m2 in 1 Std. -
Fr, 24.05. 11:20 keine Meldung -
Fr, 24.05. 11:10 keine Meldung -
Fr, 24.05. 11:00 0.0 l/m2 in 1 Std. -
Fr, 24.05. 10:30 0.0 l/m2 in 1 Std. -
Fr, 24.05. 10:00 0.0 l/m2 in 1 Std. -
Fr, 24.05. 9:30 0.0 l/m2 in 1 Std. -
Fr, 24.05. 9:00 0.0 l/m2 in 1 Std. -
Ortszeit Stärke Spitze Richtung
km/h Bft. km/h Grad Sektor
Fr, 24.05. 8:00 32 5 47 220° SW
Fr, 24.05. 2:00 14 3 32 220° SW
Do, 23.05. 20:00 22 4 58 250° W
Do, 23.05. 14:00 37 5 61 230° SW
Do, 23.05. 8:00 28 4 37 200° S
Do, 23.05. 2:00 20 4 35 270° W
Mi, 22.05. 20:00 26 4 50 270° W
Mi, 22.05. 14:00 35 5 61 300° NW
Ortszeit Stärke Spitze Richtung
km/h Bft. km/h Grad Sektor
Fr, 24.05. 12:00 30 5 44 250° W
Fr, 24.05. 11:50 30 5 - 250° W
Fr, 24.05. 11:40 32 5 - 250° W
Fr, 24.05. 11:30 30 5 44 250° W
Fr, 24.05. 11:20 30 5 - 250° W
Fr, 24.05. 11:10 32 5 - 250° W
Fr, 24.05. 11:00 32 5 47 250° W
Fr, 24.05. 10:30 32 5 47 250° W
Fr, 24.05. 10:00 32 5 47 240° SW
Fr, 24.05. 9:30 30 5 46 240° SW
Fr, 24.05. 9:00 31 5 48 230° SW
Ortszeit Untergrenze Bedeckung Gattung
total tief tief mittel hoch
Fr, 24.05. 8:00 4200 m 4/8 4/8 - - -
Fr, 24.05. 2:00 6900 m 0/8 0/8 - - -
Do, 23.05. 20:00 3600 m 8/8 8/8 - - -
Do, 23.05. 14:00 2100 m 5/8 1/8 - - -
Do, 23.05. 8:00 - 0/8 0/8 - - -
Do, 23.05. 2:00 390 m 1/8 1/8 - - -
Mi, 22.05. 20:00 - 0/8 0/8 - - -
Mi, 22.05. 14:00 600 m 7/8 7/8 - - -
Ortszeit Bedeckungsgrad in Achtel und Wolkenuntergrenze
Fr, 24.05. 12:00 7(2400m) 8(4200m)
Fr, 24.05. 11:50 7(2400m) 8(4200m)
Fr, 24.05. 11:40 5(2400m) 6(4200m) 7(7500m)
Fr, 24.05. 11:30 2(7500m) 4(4200m) 5(7500m)
Fr, 24.05. 11:20 2(7500m)
Fr, 24.05. 11:10 keine Wolken
Fr, 24.05. 11:00 keine Wolken
Fr, 24.05. 10:30 keine Wolken
Fr, 24.05. 10:00 keine Wolken
Fr, 24.05. 9:30 1(3300m)
Fr, 24.05. 9:00 8(3900m) 5(4200m)
Ortszeit Luftdruck NN (hPa) Tendenz (hPa in 3 Std.)
Fr, 24.05. 8:00 1011 - 0,7
Fr, 24.05. 2:00 1014 - 1,0
Do, 23.05. 20:00 1015 - 0,7
Do, 23.05. 14:00 1016 - 0,2
Do, 23.05. 8:00 1016 - 0,5
Do, 23.05. 2:00 1017 - 0,3
Mi, 22.05. 20:00 1017 0,0
Mi, 22.05. 14:00 1016 + 1,4
Ortszeit Luftdruck NN (hPa) Tendenz (hPa in 3 Std.)
Fr, 24.05. 12:00 1011 - 0,1
Fr, 24.05. 11:50 1011 keine Meldung
Fr, 24.05. 11:40 1011 keine Meldung
Fr, 24.05. 11:30 1011 - 0,2
Fr, 24.05. 11:20 1011 keine Meldung
Fr, 24.05. 11:10 1011 keine Meldung
Fr, 24.05. 11:00 1011 - 0,1
Fr, 24.05. 10:30 1011 - 0,2
Fr, 24.05. 10:00 1011 - 0,5
Fr, 24.05. 9:30 1011 - 0,3
Fr, 24.05. 9:00 1011 - 0,6
Ortszeit Schneehöhe (cm)
Fr, 24.05. 8:00 0
Fr, 24.05. 2:00 0
Do, 23.05. 20:00 0
Do, 23.05. 14:00 0
Do, 23.05. 8:00 0
Do, 23.05. 2:00 0
Mi, 22.05. 20:00 0
Mi, 22.05. 14:00 0
Ortszeit Schneehöhe (cm)
Fr, 24.05. 12:00 0
Fr, 24.05. 11:50 0
Fr, 24.05. 11:40 -
Fr, 24.05. 11:30 0
Fr, 24.05. 11:20 0
Fr, 24.05. 11:10 0
Fr, 24.05. 11:00 0
Fr, 24.05. 10:30 0
Fr, 24.05. 10:00 0
Fr, 24.05. 9:30 0
Fr, 24.05. 9:00 0
Link zu dieser Seite / Seite empfehlen

Das Wetter in ...